Time;durP1;ratioP1;P1;durP2;ratioP2;P2;SDS_P1;SDS_P2;PMS_P1;PMS_P2;Temp;Humidity;BMP_temperature;BMP_pressure;BME280_temperature;BME280_humidity;BME280_pressure;Samples;Min_cycle;Max_cycle;Signal;HPM_P1;HPM_P2
2021/12/20 00:01:19;;;;;;;;;;;;;;;6.34;63.35;99490.00;4358101;32;36310;-55
2021/12/20 00:03:46;;;;;;;;;;;;;;;6.47;62.84;99485.81;4358926;32;34089;-54
2021/12/20 00:06:14;;;;;;;;;;;;;;;6.30;63.27;99485.78;4358694;32;33946;-55
2021/12/20 00:08:41;;;;;;;;;;;;;;;6.37;63.07;99476.72;4358339;32;33746;-55
2021/12/20 00:11:08;;;;;;;;;;;;;;;6.48;62.76;99484.91;4358192;32;34460;-56
2021/12/20 00:13:35;;;;;;;;;;;;;;;6.50;62.62;99487.44;4358953;32;34614;-55
2021/12/20 00:16:03;;;;;;;;;;;;;;;6.33;63.01;99488.28;4358347;32;33718;-55
2021/12/20 00:18:30;;;;;;;;;;;;;;;6.34;63.20;99483.88;4364154;32;34298;-55
2021/12/20 00:20:57;;;;;;;;;;;;;;;6.19;63.75;99485.50;4366898;32;34217;-55
2021/12/20 00:23:24;;;;;;;;;;;;;;;6.44;63.01;99488.59;4358229;32;35241;-55
2021/12/20 00:25:52;;;;;;;;;;;;;;;6.53;62.84;99482.03;4358588;32;33838;-55
2021/12/20 00:28:20;;;;;;;;;;;;;;;6.45;63.05;99492.06;4355455;32;33714;-54
2021/12/20 00:30:47;;;;;;;;;;;;;;;6.69;62.58;99490.00;4357031;32;35678;-55
2021/12/20 00:33:14;;;;;;;;;;;;;;;6.73;62.02;99486.28;4358012;32;34372;-55
2021/12/20 00:35:42;;;;;;;;;;;;;;;6.48;63.23;99482.28;4358306;32;34161;-55
2021/12/20 00:40:55;;;;;;;;;;;;;;;6.73;62.60;99475.81;4357137;32;35597;-55
2021/12/20 00:43:22;;;;;;;;;;;;;;;6.79;62.30;99493.84;4363886;32;34801;-55
2021/12/20 00:45:50;;;;;;;;;;;;;;;6.89;61.92;99507.34;4372997;32;33320;-55
2021/12/20 00:48:17;;;;;;;;;;;;;;;6.87;62.24;99506.59;4362987;32;34234;-55
2021/12/20 00:50:44;;;;;;;;;;;;;;;7.03;61.63;99502.22;4357927;32;35100;-55
2021/12/20 00:53:12;;;;;;;;;;;;;;;6.94;61.79;99510.59;4358292;32;34517;-56
2021/12/20 00:55:39;;;;;;;;;;;;;;;6.77;62.35;99510.63;4356805;32;33457;-55
2021/12/20 00:58:07;;;;;;;;;;;;;;;6.80;62.10;99515.69;4357591;32;34328;-55
2021/12/20 01:00:38;;;;;;;;;;;;;;;6.95;61.67;99520.16;4358165;32;34336;-55
2021/12/20 01:03:07;;;;;;;;;;;;;;;6.85;62.18;99522.41;4357931;32;34999;-55
2021/12/20 01:05:35;;;;;;;;;;;;;;;7.16;60.92;99533.97;4358230;32;33989;-54
2021/12/20 01:08:03;;;;;;;;;;;;;;;6.84;61.58;99525.97;4358006;32;34180;-55
2021/12/20 01:10:30;;;;;;;;;;;;;;;6.85;61.57;99521.56;4357593;32;34287;-55
2021/12/20 01:13:00;;;;;;;;;;;;;;;6.93;61.66;99540.41;4357790;32;34737;-55
2021/12/20 01:15:32;;;;;;;;;;;;;;;6.81;61.92;99544.50;4357719;32;34072;-55
2021/12/20 01:17:59;;;;;;;;;;;;;;;6.73;62.55;99556.28;4358343;32;34994;-55
2021/12/20 01:20:27;;;;;;;;;;;;;;;6.98;62.21;99555.91;4357605;32;35610;-55
2021/12/20 01:22:54;;;;;;;;;;;;;;;6.78;62.63;99549.03;4357887;32;34504;-55
2021/12/20 01:25:22;;;;;;;;;;;;;;;6.74;62.86;99563.25;4357673;32;34545;-55
2021/12/20 01:27:49;;;;;;;;;;;;;;;6.92;62.13;99562.34;4356640;32;34669;-55
2021/12/20 01:30:17;;;;;;;;;;;;;;;7.08;61.74;99565.03;4357789;32;34306;-55
2021/12/20 01:32:44;;;;;;;;;;;;;;;7.09;61.72;99562.34;4357165;32;34310;-55
2021/12/20 01:35:12;;;;;;;;;;;;;;;6.65;63.33;99557.53;4358046;32;33016;-54
2021/12/20 01:37:40;;;;;;;;;;;;;;;6.80;62.97;99568.19;4357288;32;34084;-55
2021/12/20 01:40:08;;;;;;;;;;;;;;;6.89;63.46;99555.44;4357711;32;34815;-55
2021/12/20 01:42:36;;;;;;;;;;;;;;;6.61;64.58;99549.88;4357643;32;35439;-55
2021/12/20 01:45:05;;;;;;;;;;;;;;;6.61;64.59;99544.63;4359579;32;33120;-55
2021/12/20 01:47:36;;;;;;;;;;;;;;;6.70;64.20;99536.28;4359777;32;33909;-55
2021/12/20 01:50:10;;;;;;;;;;;;;;;6.89;63.49;99538.84;4359278;32;35612;-55
2021/12/20 01:52:42;;;;;;;;;;;;;;;6.87;63.25;99556.47;4359617;32;34087;-55
2021/12/20 01:55:12;;;;;;;;;;;;;;;6.58;64.19;99548.25;4359258;32;34453;-55
2021/12/20 01:57:40;;;;;;;;;;;;;;;6.55;64.57;99542.31;4359679;32;33834;-55
2021/12/20 02:00:08;;;;;;;;;;;;;;;6.74;63.92;99548.34;4359384;32;34746;-55
2021/12/20 02:02:36;;;;;;;;;;;;;;;6.50;64.47;99564.38;4358802;32;34508;-55
2021/12/20 02:05:17;;;;;;;;;;;;;;;6.33;65.48;99579.22;4359979;32;33994;-55
2021/12/20 02:08:14;;;;;;;;;;;;;;;6.37;65.60;99586.84;4359148;32;34083;-55
2021/12/20 02:10:35;;;;;;;;;;;;;;;6.55;65.07;99576.41;4359300;32;34518;-55
2021/12/20 02:13:02;;;;;;;;;;;;;;;6.25;65.70;99574.34;4359301;32;35294;-55
2021/12/20 02:15:29;;;;;;;;;;;;;;;6.23;65.88;99577.03;4359632;32;33588;-55
2021/12/20 02:17:56;;;;;;;;;;;;;;;6.78;63.99;99578.75;4358891;32;33888;-55
2021/12/20 02:20:27;;;;;;;;;;;;;;;6.64;64.41;99592.56;4359259;32;34459;-55
2021/12/20 02:22:58;;;;;;;;;;;;;;;6.59;64.34;99586.69;4359780;32;34745;-55
2021/12/20 02:25:26;;;;;;;;;;;;;;;6.47;64.83;99605.63;4357907;32;34216;-55
2021/12/20 02:27:53;;;;;;;;;;;;;;;6.35;65.18;99607.06;4358847;32;33624;-55
2021/12/20 02:38:35;;;;;;;;;;;;;;;6.12;65.52;99602.91;4358485;32;34397;-55
2021/12/20 02:41:11;;;;;;;;;;;;;;;6.10;64.68;99612.59;4358949;32;35440;-55
2021/12/20 02:43:43;;;;;;;;;;;;;;;5.94;65.24;99615.06;4359087;32;33971;-55
2021/12/20 02:49:07;;;;;;;;;;;;;;;6.13;64.36;99615.09;4359206;32;34075;-55
2021/12/20 02:51:34;;;;;;;;;;;;;;;6.29;63.50;99613.44;4359182;32;34767;-55
2021/12/20 02:54:02;;;;;;;;;;;;;;;6.02;64.44;99609.50;4358293;32;33654;-55
2021/12/20 02:56:29;;;;;;;;;;;;;;;6.07;64.00;99631.94;4358982;32;33086;-55
2021/12/20 02:58:56;;;;;;;;;;;;;;;6.07;64.00;99645.06;4358506;32;34324;-55
2021/12/20 03:01:24;;;;;;;;;;;;;;;6.39;62.87;99639.25;4370361;32;34166;-55
2021/12/20 03:03:52;;;;;;;;;;;;;;;6.00;64.21;99637.53;4372061;32;35092;-55
2021/12/20 03:06:24;;;;;;;;;;;;;;;5.81;64.65;99637.47;4357733;32;33603;-55
2021/12/20 03:08:53;;;;;;;;;;;;;;;5.88;64.76;99652.03;4358962;32;34294;-57
2021/12/20 03:11:21;;;;;;;;;;;;;;;5.80;64.65;99641.03;4359250;32;35120;-55
2021/12/20 03:13:52;;;;;;;;;;;;;;;5.50;65.39;99638.81;4359151;32;34395;-55
2021/12/20 03:16:19;;;;;;;;;;;;;;;5.54;65.00;99637.78;4358108;32;33382;-55
2021/12/20 03:18:46;;;;;;;;;;;;;;;5.60;64.94;99637.50;4359351;32;34782;-55
2021/12/20 03:21:13;;;;;;;;;;;;;;;5.59;64.79;99629.72;4358742;32;35248;-55
2021/12/20 03:23:41;;;;;;;;;;;;;;;5.32;65.43;99632.63;4359221;32;33897;-55
2021/12/20 03:26:08;;;;;;;;;;;;;;;5.13;65.79;99635.16;4358697;32;33685;-55
2021/12/20 03:28:35;;;;;;;;;;;;;;;4.96;66.07;99642.84;4358970;32;33759;-55
2021/12/20 03:31:03;;;;;;;;;;;;;;;5.10;65.62;99654.47;4358764;32;35195;-54
2021/12/20 03:33:30;;;;;;;;;;;;;;;4.92;65.88;99648.22;4358640;32;34613;-55
2021/12/20 03:35:57;;;;;;;;;;;;;;;5.46;64.26;99647.72;4359267;32;33380;-55
2021/12/20 03:38:25;;;;;;;;;;;;;;;5.02;65.29;99647.81;4358543;32;34309;-55
2021/12/20 03:40:52;;;;;;;;;;;;;;;4.97;65.17;99649.81;4358623;32;34520;-55
2021/12/20 03:43:19;;;;;;;;;;;;;;;5.12;64.34;99646.56;4358697;32;34487;-55
2021/12/20 03:45:50;;;;;;;;;;;;;;;4.86;64.66;99664.16;4358876;32;33454;-56
2021/12/20 03:48:17;;;;;;;;;;;;;;;4.86;65.04;99664.16;4359047;32;34303;-55
2021/12/20 03:50:45;;;;;;;;;;;;;;;4.91;64.65;99670.06;4358595;32;33561;-55
2021/12/20 03:53:12;;;;;;;;;;;;;;;5.01;64.09;99673.16;4358980;32;34836;-55
2021/12/20 03:55:39;;;;;;;;;;;;;;;5.38;62.80;99671.63;4354213;32;33462;-55
2021/12/20 03:58:06;;;;;;;;;;;;;;;5.27;63.09;99681.69;4354311;32;34667;-55
2021/12/20 04:00:34;;;;;;;;;;;;;;;5.01;63.69;99693.25;4357872;32;34196;-55
2021/12/20 04:03:08;;;;;;;;;;;;;;;4.99;63.89;99710.78;4358678;32;35207;-55
2021/12/20 04:05:35;;;;;;;;;;;;;;;5.05;63.73;99698.28;4358043;32;33091;-55
2021/12/20 04:08:02;;;;;;;;;;;;;;;5.01;64.00;99704.56;4357980;32;34785;-55
2021/12/20 04:10:29;;;;;;;;;;;;;;;5.07;63.79;99698.22;4358863;32;34344;-55
2021/12/20 04:12:57;;;;;;;;;;;;;;;5.33;62.45;99697.13;4357997;32;34121;-56
2021/12/20 04:15:24;;;;;;;;;;;;;;;4.94;63.40;99703.09;4358762;32;33842;-55
2021/12/20 04:17:51;;;;;;;;;;;;;;;4.96;63.18;99697.81;4357873;32;34306;-55
2021/12/20 04:20:19;;;;;;;;;;;;;;;5.05;63.37;99700.06;4358420;32;35668;-55
2021/12/20 04:22:46;;;;;;;;;;;;;;;5.18;62.35;99692.56;4358760;32;34298;-55
2021/12/20 04:25:13;;;;;;;;;;;;;;;5.09;62.43;99692.00;4358349;32;34025;-55
2021/12/20 04:27:40;;;;;;;;;;;;;;;4.98;62.59;99702.06;4358695;32;34854;-55
2021/12/20 04:30:11;;;;;;;;;;;;;;;4.79;63.51;99696.72;4358177;32;34976;-55
2021/12/20 04:32:39;;;;;;;;;;;;;;;4.86;62.82;99703.41;4357866;32;34684;-55
2021/12/20 04:35:07;;;;;;;;;;;;;;;4.68;63.69;99701.50;4358406;32;33677;-55
2021/12/20 04:37:34;;;;;;;;;;;;;;;4.84;62.77;99710.44;4358146;32;33802;-54
2021/12/20 04:40:06;;;;;;;;;;;;;;;4.88;62.44;99717.25;4358489;32;35126;-55
2021/12/20 04:42:34;;;;;;;;;;;;;;;4.82;62.53;99720.13;4357723;32;35190;-55
2021/12/20 04:45:01;;;;;;;;;;;;;;;4.45;63.89;99721.53;4358590;32;33447;-55
2021/12/20 04:47:28;;;;;;;;;;;;;;;4.47;63.61;99724.94;4357711;32;33589;-55
2021/12/20 04:49:56;;;;;;;;;;;;;;;4.53;63.05;99722.09;4358660;32;34471;-55
2021/12/20 04:52:24;;;;;;;;;;;;;;;4.41;63.50;99717.34;4357785;32;34658;-54
2021/12/20 04:54:51;;;;;;;;;;;;;;;4.38;63.60;99722.69;4358285;32;33172;-55
2021/12/20 04:57:19;;;;;;;;;;;;;;;4.53;63.01;99729.94;4358380;32;34298;-55
2021/12/20 04:59:46;;;;;;;;;;;;;;;4.52;62.63;99730.03;4357635;32;34337;-55
2021/12/20 05:02:13;;;;;;;;;;;;;;;4.40;62.67;99731.34;4357957;32;34549;-55
2021/12/20 05:04:42;;;;;;;;;;;;;;;4.56;61.73;99739.47;4357412;32;34444;-55
2021/12/20 05:07:09;;;;;;;;;;;;;;;4.50;61.69;99750.16;4357815;32;34150;-55
2021/12/20 05:09:39;;;;;;;;;;;;;;;4.57;61.24;99751.59;4357766;32;34253;-55
2021/12/20 05:12:14;;;;;;;;;;;;;;;4.37;62.04;99749.75;4357651;32;34219;-54
2021/12/20 05:14:42;;;;;;;;;;;;;;;4.19;62.62;99753.00;4358118;32;34217;-55
2021/12/20 05:17:11;;;;;;;;;;;;;;;4.57;61.20;99753.38;4358240;32;33830;-55
2021/12/20 05:19:38;;;;;;;;;;;;;;;4.55;61.25;99771.72;4359869;32;35309;-55
2021/12/20 05:22:06;;;;;;;;;;;;;;;4.54;60.91;99767.44;4359534;32;34086;-55
2021/12/20 05:24:33;;;;;;;;;;;;;;;4.52;60.70;99769.25;4359675;32;33509;-55
2021/12/20 05:27:00;;;;;;;;;;;;;;;4.42;61.07;99779.19;4359016;32;34735;-55
2021/12/20 05:29:27;;;;;;;;;;;;;;;4.57;60.12;99785.59;4359816;32;34327;-55
2021/12/20 05:31:55;;;;;;;;;;;;;;;4.58;59.98;99784.72;4358670;32;34683;-55
2021/12/20 05:34:22;;;;;;;;;;;;;;;4.38;60.17;99788.06;4345869;32;32693;-54
2021/12/20 05:36:49;;;;;;;;;;;;;;;4.43;59.75;99780.03;4359140;32;34346;-54
2021/12/20 05:39:16;;;;;;;;;;;;;;;4.38;59.96;99788.06;4358880;32;34664;-55
2021/12/20 05:41:43;;;;;;;;;;;;;;;4.24;60.30;99791.16;4359055;32;35266;-55
2021/12/20 05:44:11;;;;;;;;;;;;;;;4.44;60.04;99792.19;4358900;32;33264;-57
2021/12/20 05:46:38;;;;;;;;;;;;;;;4.60;59.10;99802.97;4358431;32;34568;-55
2021/12/20 05:49:05;;;;;;;;;;;;;;;4.32;59.50;99804.81;4358821;32;34179;-55
2021/12/20 05:51:32;;;;;;;;;;;;;;;4.40;59.19;99794.09;4357949;32;35035;-55
2021/12/20 05:54:00;;;;;;;;;;;;;;;4.30;59.33;99806.62;4359903;32;33291;-55
2021/12/20 05:56:27;;;;;;;;;;;;;;;4.23;59.30;99812.97;4359103;32;34353;-55
2021/12/20 05:58:54;;;;;;;;;;;;;;;4.00;59.58;99807.72;4359937;32;34763;-54
2021/12/20 06:01:22;;;;;;;;;;;;;;;4.32;58.45;99823.13;4358469;32;34268;-55
2021/12/20 06:03:49;;;;;;;;;;;;;;;3.86;59.75;99822.09;4359286;32;33448;-54
2021/12/20 06:06:16;;;;;;;;;;;;;;;4.06;59.21;99823.16;4359824;32;33660;-55
2021/12/20 06:08:43;;;;;;;;;;;;;;;4.10;59.15;99830.84;4359289;32;34502;-55
2021/12/20 06:11:11;;;;;;;;;;;;;;;3.78;59.77;99833.69;4359997;32;34120;-55
2021/12/20 06:13:38;;;;;;;;;;;;;;;4.14;58.92;99831.59;4358318;32;34514;-55
2021/12/20 06:16:05;;;;;;;;;;;;;;;4.08;58.68;99829.19;4359949;32;33645;-54
2021/12/20 06:18:33;;;;;;;;;;;;;;;4.05;58.88;99829.28;4359583;32;34159;-55
2021/12/20 06:21:00;;;;;;;;;;;;;;;4.08;58.57;99839.66;4359118;32;34513;-55
2021/12/20 06:23:27;;;;;;;;;;;;;;;4.11;58.15;99839.53;4358731;32;33323;-54
2021/12/20 06:25:54;;;;;;;;;;;;;;;4.38;57.48;99849.94;4358852;32;33849;-54
2021/12/20 06:28:22;;;;;;;;;;;;;;;3.98;58.38;99864.41;4358205;32;34827;-54
2021/12/20 06:30:49;;;;;;;;;;;;;;;3.96;58.48;99861.81;4358232;32;33900;-54
2021/12/20 06:33:16;;;;;;;;;;;;;;;4.00;58.55;99855.59;4359671;32;32991;-55
2021/12/20 06:35:45;;;;;;;;;;;;;;;3.87;58.59;99859.50;4358941;32;33798;-55
2021/12/20 06:38:18;;;;;;;;;;;;;;;3.89;58.55;99862.94;4358374;32;34869;-55
2021/12/20 06:40:47;;;;;;;;;;;;;;;4.43;61.48;99869.78;4359319;32;34048;-55
2021/12/20 06:43:14;;;;;;;;;;;;;;;4.56;57.79;99862.38;4358441;32;34179;-55
2021/12/20 06:45:41;;;;;;;;;;;;;;;4.19;57.03;99863.66;4355110;32;34291;-56
2021/12/20 06:48:10;;;;;;;;;;;;;;;4.27;56.88;99863.41;4358455;32;34482;-55
2021/12/20 06:50:37;;;;;;;;;;;;;;;4.22;57.12;99881.00;4365729;32;34644;-55
2021/12/20 06:53:05;;;;;;;;;;;;;;;4.19;56.96;99886.31;4372414;32;34472;-55
2021/12/20 06:55:33;;;;;;;;;;;;;;;4.29;58.57;99892.97;4358820;32;33737;-55
2021/12/20 06:58:00;;;;;;;;;;;;;;;4.19;56.99;99886.31;4358701;32;34912;-55
2021/12/20 07:00:28;;;;;;;;;;;;;;;4.02;56.98;99890.34;4356730;32;34860;-55
2021/12/20 07:02:55;;;;;;;;;;;;;;;3.97;57.08;99878.34;4366094;32;33438;-55
2021/12/20 07:05:23;;;;;;;;;;;;;;;4.04;56.92;99882.47;4359919;32;34255;-55
2021/12/20 07:07:50;;;;;;;;;;;;;;;4.04;56.72;99893.78;4357999;32;34750;-55
2021/12/20 07:10:18;;;;;;;;;;;;;;;3.94;56.99;99897.59;4357748;32;34653;-55
2021/12/20 07:12:45;;;;;;;;;;;;;;;3.88;56.89;99895.19;4358791;32;33422;-55
2021/12/20 07:15:14;;;;;;;;;;;;;;;4.33;55.89;99899.78;4358275;32;33479;-54
2021/12/20 07:17:41;;;;;;;;;;;;;;;4.08;56.33;99898.00;4358326;32;35396;-55
2021/12/20 07:20:09;;;;;;;;;;;;;;;4.03;56.51;99902.53;4358700;32;34699;-55
2021/12/20 07:22:37;;;;;;;;;;;;;;;3.94;56.23;99901.06;4357814;32;35145;-55
2021/12/20 07:25:05;;;;;;;;;;;;;;;4.29;55.38;99896.41;4358695;32;34706;-55
2021/12/20 07:27:32;;;;;;;;;;;;;;;4.27;55.16;99889.53;4358129;32;34253;-55
2021/12/20 07:29:59;;;;;;;;;;;;;;;4.20;55.45;99886.25;4358649;32;35183;-55
2021/12/20 07:32:26;;;;;;;;;;;;;;;3.99;56.18;99893.06;4356983;32;33326;-55
2021/12/20 07:34:53;;;;;;;;;;;;;;;4.07;56.29;99892.81;4358042;32;33839;-56
2021/12/20 07:37:22;;;;;;;;;;;;;;;4.17;56.35;99893.34;4358461;32;34722;-55
2021/12/20 07:39:49;;;;;;;;;;;;;;;4.08;56.40;99890.16;4357131;32;35113;-55
2021/12/20 07:42:16;;;;;;;;;;;;;;;4.03;56.85;99875.53;4358321;32;33705;-55
2021/12/20 07:44:44;;;;;;;;;;;;;;;4.30;55.84;99876.34;4357849;32;34157;-54
2021/12/20 07:47:11;;;;;;;;;;;;;;;4.03;56.70;99870.31;4357814;32;35095;-54
2021/12/20 07:49:38;;;;;;;;;;;;;;;4.13;56.40;99874.34;4358523;32;34159;-55
2021/12/20 07:52:05;;;;;;;;;;;;;;;4.05;56.82;99884.16;4358724;32;33722;-55
2021/12/20 07:54:33;;;;;;;;;;;;;;;4.08;56.88;99878.84;4358193;32;34686;-54
2021/12/20 07:57:00;;;;;;;;;;;;;;;4.39;56.11;99883.88;4357776;32;35683;-55
2021/12/20 07:59:27;;;;;;;;;;;;;;;4.22;57.00;99887.06;4357542;32;34536;-55
2021/12/20 08:01:55;;;;;;;;;;;;;;;4.41;56.67;99891.69;4357065;32;32855;-55
2021/12/20 08:04:22;;;;;;;;;;;;;;;4.46;56.49;99895.84;4357097;32;34232;-54
2021/12/20 08:06:49;;;;;;;;;;;;;;;4.27;57.27;99903.47;4357287;32;34279;-55
2021/12/20 08:11:07;;;;;;;;;;;;;;;5.02;55.89;99894.72;4466521;32;837355;-56
2021/12/20 08:13:44;;;;;;;;;;;;;;;5.02;55.89;99894.72;4477073;32;33884;-55
2021/12/20 08:16:12;;;;;;;;;;;;;;;4.60;56.71;99910.19;4461613;32;32797;-56
2021/12/20 08:18:43;;;;;;;;;;;;;;;4.55;56.31;99894.66;4470235;32;34481;-56
2021/12/20 08:21:11;;;;;;;;;;;;;;;4.66;56.19;99902.97;4470325;32;33885;-56
2021/12/20 08:23:38;;;;;;;;;;;;;;;4.69;55.74;99894.16;4477753;32;33908;-56
2021/12/20 08:26:05;;;;;;;;;;;;;;;4.95;55.39;99906.31;4447315;32;33674;-55
2021/12/20 08:28:34;;;;;;;;;;;;;;;4.71;55.73;99906.28;4469628;32;34814;-55
2021/12/20 08:31:04;;;;;;;;;;;;;;;4.52;55.73;99895.63;4463359;32;34395;-55
2021/12/20 08:33:32;;;;;;;;;;;;;;;4.73;55.21;99893.16;4466443;32;33354;-56
2021/12/20 08:36:03;;;;;;;;;;;;;;;4.93;53.84;99897.66;4462219;32;33812;-56
2021/12/20 08:38:31;;;;;;;;;;;;;;;4.71;53.58;99893.22;4460987;32;35821;-55
2021/12/20 08:41:00;;;;;;;;;;;;;;;4.67;54.11;99898.59;4473550;32;33861;-56
2021/12/20 08:43:28;;;;;;;;;;;;;;;4.59;53.56;99898.84;4467621;32;34125;-56
2021/12/20 08:45:59;;;;;;;;;;;;;;;4.67;53.49;99904.69;4477071;32;34943;-55
2021/12/20 08:48:26;;;;;;;;;;;;;;;4.65;53.07;99906.50;4468208;32;34510;-56
2021/12/20 08:50:53;;;;;;;;;;;;;;;4.50;53.94;99913.12;4469188;32;34427;-56
2021/12/20 08:53:21;;;;;;;;;;;;;;;4.59;53.65;99891.00;4474208;32;33483;-55
2021/12/20 08:55:48;;;;;;;;;;;;;;;4.69;53.64;99891.53;4474064;32;34628;-55
2021/12/20 08:58:15;;;;;;;;;;;;;;;4.82;53.10;99882.34;4467667;32;34749;-55
2021/12/20 09:00:42;;;;;;;;;;;;;;;5.09;52.44;99890.09;4464071;32;33999;-56
2021/12/20 09:03:10;;;;;;;;;;;;;;;5.03;52.27;99890.31;4467681;32;33515;-55
2021/12/20 09:05:37;;;;;;;;;;;;;;;5.01;52.01;99916.53;4463842;32;34270;-56
2021/12/20 09:08:06;;;;;;;;;;;;;;;4.89;52.35;99920.47;4461389;32;34473;-55
2021/12/20 09:10:35;;;;;;;;;;;;;;;5.34;68.34;99924.06;4471736;32;34454;-56
2021/12/20 09:13:03;;;;;;;;;;;;;;;5.89;55.18;99921.03;4475913;32;33043;-56
2021/12/20 09:15:30;;;;;;;;;;;;;;;5.67;50.76;99924.50;4477243;32;33644;-55
2021/12/20 09:17:58;;;;;;;;;;;;;;;5.55;50.78;99913.69;4476726;32;34191;-55
2021/12/20 09:20:26;;;;;;;;;;;;;;;5.87;53.08;99920.25;4464056;32;34932;-56
2021/12/20 09:22:56;;;;;;;;;;;;;;;5.95;48.79;99917.31;4451705;32;32488;-56
2021/12/20 09:25:24;;;;;;;;;;;;;;;5.81;49.09;99920.50;4450264;32;35128;-56
2021/12/20 09:27:52;;;;;;;;;;;;;;;5.49;48.62;99925.25;4451914;32;34732;-56
2021/12/20 09:30:20;;;;;;;;;;;;;;;5.46;49.07;99926.19;4449948;32;33997;-56
2021/12/20 09:32:47;;;;;;;;;;;;;;;5.81;48.38;99928.34;4451862;32;33994;-56
2021/12/20 09:35:14;;;;;;;;;;;;;;;5.85;48.37;99928.16;4450736;32;33713;-56
2021/12/20 09:37:43;;;;;;;;;;;;;;;5.65;48.21;99926.34;4451355;32;34927;-56
2021/12/20 09:40:13;;;;;;;;;;;;;;;5.76;48.64;99922.44;4451691;32;34447;-55
2021/12/20 09:42:52;;;;;;;;;;;;;;;5.81;48.80;99917.87;4450047;32;33462;-56
2021/12/20 09:45:20;;;;;;;;;;;;;;;5.92;48.24;99910.44;4451860;32;33945;-55
2021/12/20 09:47:48;;;;;;;;;;;;;;;6.06;48.01;99905.50;4449993;32;34952;-55
2021/12/20 09:50:15;;;;;;;;;;;;;;;5.94;47.96;99902.50;4451556;32;34306;-56
2021/12/20 09:52:43;;;;;;;;;;;;;;;5.98;48.03;99917.22;4451142;32;33691;-55
2021/12/20 09:55:11;;;;;;;;;;;;;;;5.86;48.21;99905.44;4450649;32;33991;-57
2021/12/20 09:57:38;;;;;;;;;;;;;;;5.79;47.84;99906.59;4451694;32;35252;-56
2021/12/20 10:00:06;;;;;;;;;;;;;;;6.00;47.85;99903.13;4435872;32;34165;-56
2021/12/20 10:02:42;;;;;;;;;;;;;;;5.94;48.05;99902.50;4451635;32;34438;-55
2021/12/20 10:05:10;;;;;;;;;;;;;;;5.88;47.92;99901.00;4450010;32;34094;-56
2021/12/20 10:07:38;;;;;;;;;;;;;;;5.83;48.34;99903.78;4451493;32;35707;-55
2021/12/20 10:10:07;;;;;;;;;;;;;;;5.60;48.56;99906.47;4450877;32;34092;-56
2021/12/20 10:12:34;;;;;;;;;;;;;;;5.51;49.27;99916.41;4450620;32;33191;-55
2021/12/20 10:15:04;;;;;;;;;;;;;;;5.52;48.94;99912.88;4451731;32;33969;-55
2021/12/20 10:17:52;;;;;;;;;;;;;;;5.44;49.26;99922.78;4450071;32;34308;-56
2021/12/20 10:20:22;;;;;;;;;;;;;;;5.51;49.18;99910.31;4451481;32;35052;-57
2021/12/20 10:22:50;;;;;;;;;;;;;;;5.64;49.65;99926.38;4451204;32;33809;-56
2021/12/20 10:25:24;;;;;;;;;;;;;;;5.76;49.44;99919.81;4465106;32;34195;-56
2021/12/20 10:27:52;;;;;;;;;;;;;;;5.91;51.20;99924.44;4458649;32;35287;-57
2021/12/20 10:30:21;;;;;;;;;;;;;;;5.97;51.38;99926.88;4456327;32;35141;-56
2021/12/20 10:32:49;;;;;;;;;;;;;;;5.97;49.37;99933.88;4457930;32;33350;-56
2021/12/20 10:35:43;;;;;;;;;;;;;;;5.67;50.99;99942.00;4450670;32;34169;-56
2021/12/20 10:38:29;;;;;;;;;;;;;;;5.82;50.33;99933.53;4449077;32;34436;-56
2021/12/20 10:41:16;;;;;;;;;;;;;;;5.88;50.15;99937.69;4459760;32;33771;-56
2021/12/20 10:43:50;;;;;;;;;;;;;;;6.07;49.51;99937.84;4450493;32;33324;-56
2021/12/20 10:46:23;;;;;;;;;;;;;;;5.85;49.81;99945.66;4451275;32;34540;-56
2021/12/20 10:48:51;;;;;;;;;;;;;;;5.96;49.41;99940.03;4450447;32;34477;-56
2021/12/20 10:51:39;;;;;;;;;;;;;;;5.64;50.45;99948.22;4462014;32;34432;-56
2021/12/20 10:54:12;;;;;;;;;;;;;;;5.53;50.60;99950.41;4457515;32;31873;-57
2021/12/20 10:56:41;;;;;;;;;;;;;;;5.85;49.87;99932.56;4451762;32;34976;-56
2021/12/20 10:59:14;;;;;;;;;;;;;;;5.70;50.55;99955.00;4437674;32;35649;-56
2021/12/20 11:04:36;;;;;;;;;;;;;;;6.09;49.82;99947.34;4480489;32;33199;-56
2021/12/20 11:09:41;;;;;;;;;;;;;;;5.95;49.93;99933.91;4449482;32;34301;-56
2021/12/20 11:12:10;;;;;;;;;;;;;;;5.92;49.98;99934.88;4457244;32;34835;-56
2021/12/20 11:14:38;;;;;;;;;;;;;;;6.16;49.50;99944.47;4453497;32;33577;-56
2021/12/20 11:17:08;;;;;;;;;;;;;;;6.26;49.72;99935.28;4452097;32;33964;-56
2021/12/20 11:19:36;;;;;;;;;;;;;;;6.31;48.87;99930.72;4468466;32;35704;-55
2021/12/20 11:22:04;;;;;;;;;;;;;;;5.93;49.85;99933.09;4480535;32;33308;-56
2021/12/20 11:25:04;;;;;;;;;;;;;;;6.23;49.18;99941.53;4470477;32;33476;-56
2021/12/20 11:27:38;;;;;;;;;;;;;;;5.78;50.17;99946.81;4423836;32;34109;-56
2021/12/20 11:30:09;;;;;;;;;;;;;;;5.81;50.64;99949.31;4449759;32;34863;-56
2021/12/20 11:32:37;;;;;;;;;;;;;;;6.16;49.99;99947.94;4456491;32;34235;-56
2021/12/20 11:35:05;;;;;;;;;;;;;;;6.00;50.04;99945.09;4449206;32;33928;-56
2021/12/20 11:37:32;;;;;;;;;;;;;;;6.15;48.91;99945.38;4451247;32;34965;-56
2021/12/20 11:40:00;;;;;;;;;;;;;;;6.39;48.51;99946.97;4448815;32;35351;-55
2021/12/20 11:42:27;;;;;;;;;;;;;;;6.50;54.47;99939.50;4450753;32;34364;-56
2021/12/20 11:44:56;;;;;;;;;;;;;;;6.40;48.37;99946.06;4449564;32;33552;-56
2021/12/20 11:47:41;;;;;;;;;;;;;;;6.18;49.29;99953.13;4449239;32;33908;-56
2021/12/20 11:50:13;;;;;;;;;;;;;;;6.42;48.63;99949.47;4450309;32;34040;-56
2021/12/20 11:52:45;;;;;;;;;;;;;;;6.56;48.40;99946.28;4448738;32;35228;-56
2021/12/20 11:55:25;;;;;;;;;;;;;;;6.70;48.15;99948.31;4450423;32;33538;-56
2021/12/20 11:57:54;;;;;;;;;;;;;;;6.73;48.51;99949.94;4450643;32;34990;-56
2021/12/20 12:00:34;;;;;;;;;;;;;;;6.58;48.49;99952.31;4449276;32;35596;-56
2021/12/20 12:03:03;;;;;;;;;;;;;;;6.65;48.90;99959.00;4442125;32;34925;-56
2021/12/20 12:05:32;;;;;;;;;;;;;;;6.92;47.83;99950.84;4453531;32;33384;-56
2021/12/20 12:08:20;;;;;;;;;;;;;;;6.82;48.27;99941.66;4464616;32;33547;-56
2021/12/20 12:10:47;;;;;;;;;;;;;;;6.40;48.59;99940.81;4464658;32;34949;-56
2021/12/20 12:13:16;;;;;;;;;;;;;;;6.58;48.41;99947.06;4449142;32;34752;-56
2021/12/20 12:15:50;;;;;;;;;;;;;;;6.58;47.40;99943.59;4449500;32;34215;-56
2021/12/20 12:18:18;;;;;;;;;;;;;;;6.43;47.38;99945.09;4447406;32;33758;-56
2021/12/20 12:20:47;;;;;;;;;;;;;;;6.52;47.12;99943.84;4449382;32;34052;-56
2021/12/20 12:23:16;;;;;;;;;;;;;;;6.76;46.88;99948.03;4448559;32;34244;-56
2021/12/20 12:25:46;;;;;;;;;;;;;;;6.78;46.86;99951.44;4448361;32;34245;-56
2021/12/20 12:28:14;;;;;;;;;;;;;;;6.36;47.83;99949.75;4449060;32;33817;-56
2021/12/20 12:30:42;;;;;;;;;;;;;;;6.10;48.38;99954.28;4448259;32;34561;-56
2021/12/20 12:33:12;;;;;;;;;;;;;;;6.05;48.82;99955.41;4448974;32;34290;-56
2021/12/20 12:35:39;;;;;;;;;;;;;;;5.96;49.38;99961.00;4447984;32;33368;-56
2021/12/20 12:38:21;;;;;;;;;;;;;;;6.04;48.54;99957.16;4449567;32;34282;-56
2021/12/20 12:41:08;;;;;;;;;;;;;;;6.58;48.95;99954.94;4447648;32;33941;-56
2021/12/20 12:43:44;;;;;;;;;;;;;;;6.80;47.65;99961.88;4456336;32;34419;-56
2021/12/20 12:46:11;;;;;;;;;;;;;;;7.15;51.38;99969.97;4449755;32;33480;-56
2021/12/20 12:48:49;;;;;;;;;;;;;;;6.85;46.93;99965.16;4433840;32;34088;-56
2021/12/20 12:51:20;;;;;;;;;;;;;;;6.74;46.27;99970.03;4457219;32;35586;-56
2021/12/20 12:53:49;;;;;;;;;;;;;;;6.71;45.33;99973.62;4451628;32;33879;-56
2021/12/20 12:56:28;;;;;;;;;;;;;;;6.61;44.77;99974.94;4459971;32;33009;-56
2021/12/20 12:59:25;;;;;;;;;;;;;;;6.29;45.40;99980.59;4455975;32;33725;-56
2021/12/20 13:01:56;;;;;;;;;;;;;;;6.29;46.12;99977.13;4436309;32;34906;-56
2021/12/20 13:04:41;;;;;;;;;;;;;;;6.31;45.47;99993.66;4443735;32;34307;-56
2021/12/20 13:07:08;;;;;;;;;;;;;;;6.22;45.20;99981.78;4452387;32;34157;-56
2021/12/20 13:09:43;;;;;;;;;;;;;;;6.40;44.86;99987.19;4458274;32;35024;-56
2021/12/20 13:12:13;;;;;;;;;;;;;;;6.12;45.26;99994.37;4451579;32;34994;-56
2021/12/20 13:14:50;;;;;;;;;;;;;;;5.83;46.09;99994.66;4461285;32;33868;-56
2021/12/20 13:17:30;;;;;;;;;;;;;;;6.08;45.87;99997.22;4466951;32;32814;-56
2021/12/20 13:20:18;;;;;;;;;;;;;;;5.95;45.78;99996.81;4466781;32;33779;-55
2021/12/20 13:22:55;;;;;;;;;;;;;;;6.22;45.00;100010.63;4465297;32;34746;-56
2021/12/20 13:25:42;;;;;;;;;;;;;;;5.90;46.04;100010.09;4450206;32;34734;-55
2021/12/20 13:28:11;;;;;;;;;;;;;;;5.66;46.04;99996.19;4450091;32;33521;-56
2021/12/20 13:30:46;;;;;;;;;;;;;;;5.75;46.35;100005.44;4451659;32;34826;-56